createdAt,value
2018-03-17T00:00:05.728Z,31.37
2018-03-17T00:02:34.701Z,27.50
2018-03-17T00:05:04.910Z,29.47
2018-03-17T00:07:34.311Z,29.83
2018-03-17T00:10:03.582Z,29.23
2018-03-17T00:12:32.968Z,29.43
2018-03-17T00:15:02.319Z,30.03
2018-03-17T00:17:31.504Z,30.77
2018-03-17T00:20:00.724Z,27.20
2018-03-17T00:22:30.112Z,31.40
2018-03-17T00:24:59.421Z,29.40
2018-03-17T00:27:28.695Z,26.77
2018-03-17T00:29:57.893Z,29.23
2018-03-17T00:32:27.101Z,28.17
2018-03-17T00:34:56.406Z,28.77
2018-03-17T00:37:25.657Z,29.87
2018-03-17T00:39:55.021Z,31.60
2018-03-17T00:42:25.213Z,29.43
2018-03-17T00:44:54.451Z,31.07
2018-03-17T00:47:24.557Z,29.97
2018-03-17T00:49:53.831Z,30.10
2018-03-17T00:52:23.098Z,28.67
2018-03-17T00:54:53.075Z,29.37
2018-03-17T00:57:22.341Z,28.80
2018-03-17T00:59:51.546Z,28.90
2018-03-17T01:02:20.819Z,26.07
2018-03-17T01:04:49.946Z,29.13
2018-03-17T01:07:19.146Z,27.83
2018-03-17T01:09:48.438Z,29.63
2018-03-17T01:12:17.802Z,27.80
2018-03-17T01:14:47.857Z,24.57
2018-03-17T01:17:17.060Z,30.00
2018-03-17T01:19:46.367Z,26.23
2018-03-17T01:22:15.564Z,26.40
2018-03-17T01:24:44.819Z,24.97
2018-03-17T01:27:14.068Z,26.93
2018-03-17T01:29:43.463Z,26.20
2018-03-17T01:32:12.772Z,27.07
2018-03-17T01:34:41.768Z,27.03
2018-03-17T01:37:10.784Z,27.13
2018-03-17T01:39:40.032Z,28.10
2018-03-17T01:42:09.269Z,28.07
2018-03-17T01:44:38.455Z,31.70
2018-03-17T01:47:07.639Z,29.73
2018-03-17T01:49:36.835Z,31.20
2018-03-17T01:52:06.085Z,29.77
2018-03-17T01:54:36.046Z,28.93
2018-03-17T01:57:05.265Z,29.37
2018-03-17T01:59:34.453Z,30.83
2018-03-17T02:02:03.739Z,29.70
2018-03-17T02:04:32.969Z,32.33
2018-03-17T02:07:03.014Z,31.03
2018-03-17T02:09:33.006Z,35.30
2018-03-17T02:12:03.109Z,32.33
2018-03-17T02:14:32.400Z,33.37
2018-03-17T02:17:01.681Z,32.73
2018-03-17T02:19:30.909Z,34.80
2018-03-17T02:22:00.162Z,33.50
2018-03-17T02:24:29.388Z,34.60
2018-03-17T02:26:58.704Z,32.70
2018-03-17T02:29:27.889Z,34.77
2018-03-17T02:31:57.236Z,34.57
2018-03-17T02:34:26.455Z,34.73
2018-03-17T02:36:55.729Z,36.73
2018-03-17T02:39:24.998Z,36.43
2018-03-17T02:41:54.294Z,34.00
2018-03-17T02:44:33.795Z,34.77
2018-03-17T02:47:03.048Z,38.23
2018-03-17T02:49:32.267Z,32.70
2018-03-17T02:52:01.525Z,31.20
2018-03-17T02:54:30.742Z,33.30
2018-03-17T02:57:00.780Z,34.37
2018-03-17T02:59:30.776Z,34.30
2018-03-17T03:02:00.793Z,31.77
2018-03-17T03:04:30.075Z,34.63
2018-03-17T03:06:59.261Z,32.13
2018-03-17T03:09:29.712Z,31.00
2018-03-17T03:11:59.764Z,35.67
2018-03-17T03:14:29.835Z,33.90
2018-03-17T03:16:59.126Z,36.17
2018-03-17T03:19:28.397Z,37.17
2018-03-17T03:21:57.638Z,35.13
2018-03-17T03:24:26.934Z,35.90
2018-03-17T03:26:56.181Z,33.97
2018-03-17T03:29:25.365Z,36.10
2018-03-17T03:31:55.514Z,33.10
2018-03-17T03:34:24.817Z,33.23
2018-03-17T03:36:54.084Z,31.07
2018-03-17T03:39:24.116Z,29.97
2018-03-17T03:41:53.374Z,31.50
2018-03-17T03:44:22.558Z,30.00
2018-03-17T03:46:51.894Z,31.90
2018-03-17T03:49:21.899Z,28.80
2018-03-17T03:51:51.145Z,30.47
2018-03-17T03:54:20.415Z,30.27
2018-03-17T03:56:50.703Z,27.87
2018-03-17T03:59:19.946Z,29.23
2018-03-17T04:01:49.996Z,28.07
2018-03-17T04:04:19.211Z,30.23
2018-03-17T04:06:48.521Z,29.17
2018-03-17T04:09:17.569Z,29.00
2018-03-17T04:11:46.824Z,29.63
2018-03-17T04:14:16.049Z,26.63
2018-03-17T04:16:45.316Z,28.73
2018-03-17T04:19:14.514Z,27.47
2018-03-17T04:21:43.806Z,27.43
2018-03-17T04:24:13.481Z,25.37
2018-03-17T04:26:42.723Z,28.47
2018-03-17T04:29:12.932Z,25.67
2018-03-17T04:31:42.129Z,27.90
2018-03-17T04:34:11.435Z,25.80
2018-03-17T04:36:40.730Z,27.17
2018-03-17T04:39:11.666Z,27.47
2018-03-17T04:41:41.062Z,27.47
2018-03-17T04:44:10.400Z,25.47
2018-03-17T04:46:40.527Z,27.50
2018-03-17T04:49:09.756Z,29.17
2018-03-17T04:51:38.949Z,26.03
2018-03-17T04:54:08.597Z,27.30
2018-03-17T04:56:37.805Z,27.00
2018-03-17T04:59:07.106Z,28.63
2018-03-17T05:01:37.123Z,29.73
2018-03-17T05:04:06.335Z,28.40
2018-03-17T05:06:35.619Z,26.57
2018-03-17T05:09:04.801Z,27.83
2018-03-17T05:11:33.962Z,29.03
2018-03-17T05:14:03.207Z,29.67
2018-03-17T05:16:32.435Z,30.93
2018-03-17T05:19:01.633Z,30.30
2018-03-17T05:21:30.911Z,33.37
2018-03-17T05:24:00.149Z,31.37
2018-03-17T05:26:29.447Z,31.20
2018-03-17T05:28:58.755Z,31.33
2018-03-17T05:31:27.970Z,28.60
2018-03-17T05:33:57.175Z,30.87
2018-03-17T05:36:27.258Z,32.17
2018-03-17T05:38:56.468Z,28.83
2018-03-17T05:41:25.721Z,29.73
2018-03-17T05:43:54.958Z,28.90
2018-03-17T05:46:25.022Z,32.27
2018-03-17T05:48:54.317Z,29.80
2018-03-17T05:51:23.521Z,29.83
2018-03-17T05:53:52.728Z,28.77
2018-03-17T05:56:22.010Z,29.83
2018-03-17T05:58:51.320Z,28.07
2018-03-17T06:01:20.510Z,30.10
2018-03-17T06:03:49.816Z,31.30
2018-03-17T06:06:19.030Z,27.50
2018-03-17T06:08:48.246Z,28.47
2018-03-17T06:11:17.712Z,28.30
2018-03-17T06:13:47.288Z,28.03
2018-03-17T06:16:17.273Z,28.00
2018-03-17T06:18:47.298Z,27.70
2018-03-17T06:21:17.329Z,27.30
2018-03-17T06:23:46.559Z,28.87
2018-03-17T06:26:15.782Z,27.10
2018-03-17T06:28:45.793Z,27.67
2018-03-17T06:31:15.014Z,27.97
2018-03-17T06:33:45.218Z,27.80
2018-03-17T06:36:14.812Z,25.37
2018-03-17T06:38:44.025Z,28.03
2018-03-17T06:41:13.257Z,27.03
2018-03-17T06:43:42.609Z,26.57
2018-03-17T06:46:11.889Z,25.47
2018-03-17T06:48:41.085Z,26.63
2018-03-17T06:51:10.406Z,28.30
2018-03-17T06:53:39.575Z,27.33
2018-03-17T06:56:08.905Z,24.77
2018-03-17T06:58:38.093Z,26.57
2018-03-17T07:01:07.507Z,27.23
2018-03-17T07:03:36.936Z,25.27
2018-03-17T07:06:06.310Z,26.73
2018-03-17T07:08:35.528Z,25.63
2018-03-17T07:11:04.916Z,26.37
2018-03-17T07:13:33.934Z,25.00
2018-03-17T07:16:03.924Z,22.27
2018-03-17T07:18:33.227Z,23.57
2018-03-17T07:21:02.505Z,23.17
2018-03-17T07:23:31.718Z,22.17
2018-03-17T07:26:01.015Z,21.20
2018-03-17T07:28:30.265Z,21.83
2018-03-17T07:30:59.535Z,19.57
2018-03-17T07:33:29.623Z,20.17
2018-03-17T07:35:58.837Z,20.47
2018-03-17T07:38:28.113Z,20.90
2018-03-17T07:40:57.419Z,21.23
2018-03-17T07:43:26.839Z,21.30
2018-03-17T07:45:56.601Z,20.60
2018-03-17T07:48:25.828Z,20.27
2018-03-17T07:50:55.743Z,21.77
2018-03-17T07:53:25.030Z,19.83
2018-03-17T07:55:54.362Z,20.27
2018-03-17T07:58:23.581Z,18.77
2018-03-17T08:00:53.553Z,17.90
2018-03-17T08:03:23.182Z,21.10
2018-03-17T08:05:52.381Z,20.70
2018-03-17T08:08:21.892Z,20.43
2018-03-17T08:10:51.155Z,17.80
2018-03-17T08:13:20.432Z,19.20
2018-03-17T08:15:49.705Z,19.20
2018-03-17T08:18:19.697Z,16.07
2018-03-17T08:20:49.723Z,18.97
2018-03-17T08:23:19.051Z,20.80
2018-03-17T08:25:49.038Z,19.67
2018-03-17T08:28:18.269Z,19.53
2018-03-17T08:30:47.513Z,19.87
2018-03-17T08:33:16.767Z,19.93
2018-03-17T08:35:46.014Z,18.53
2018-03-17T08:38:15.212Z,18.63
2018-03-17T08:40:44.529Z,18.83
2018-03-17T08:43:13.753Z,19.70
2018-03-17T08:45:42.964Z,18.33
2018-03-17T08:48:12.322Z,19.50
2018-03-17T08:50:41.629Z,19.00
2018-03-17T08:53:10.872Z,17.60
2018-03-17T08:55:40.237Z,18.30
2018-03-17T08:58:09.484Z,20.27
2018-03-17T09:00:39.642Z,20.13
2018-03-17T09:03:08.988Z,18.07
2018-03-17T09:05:38.236Z,18.47
2018-03-17T09:08:08.988Z,17.87
2018-03-17T09:10:38.223Z,19.03
2018-03-17T09:13:07.438Z,21.43
2018-03-17T09:15:36.821Z,20.17
2018-03-17T09:18:06.152Z,21.30
2018-03-17T09:20:36.190Z,20.70
2018-03-17T09:23:05.425Z,19.00
2018-03-17T09:25:34.724Z,20.10
2018-03-17T09:28:04.884Z,21.97
2018-03-17T09:30:34.213Z,22.43
2018-03-17T09:33:03.449Z,22.77
2018-03-17T09:35:32.648Z,22.20
2018-03-17T09:38:02.032Z,22.33
2018-03-17T09:40:31.204Z,21.27
2018-03-17T09:43:00.512Z,21.47
2018-03-17T09:45:29.813Z,20.23
2018-03-17T09:47:59.218Z,20.97
2018-03-17T09:50:28.478Z,20.03
2018-03-17T09:52:57.810Z,20.57
2018-03-17T09:55:27.113Z,19.47
2018-03-17T09:57:56.316Z,20.50
2018-03-17T10:00:25.630Z,20.40
2018-03-17T10:02:55.019Z,21.53
2018-03-17T10:05:24.193Z,21.87
2018-03-17T10:07:53.511Z,23.27
2018-03-17T10:10:22.771Z,20.23
2018-03-17T10:12:52.036Z,20.93
2018-03-17T10:15:22.034Z,20.50
2018-03-17T10:17:51.423Z,19.10
2018-03-17T10:20:20.735Z,20.00
2018-03-17T10:22:50.061Z,21.07
2018-03-17T10:25:19.341Z,20.13
2018-03-17T10:27:48.726Z,22.23
2018-03-17T10:30:17.891Z,20.93
2018-03-17T10:32:47.083Z,23.13
2018-03-17T10:35:16.326Z,22.50
2018-03-17T10:37:45.561Z,21.63
2018-03-17T10:40:14.841Z,20.63
2018-03-17T10:42:44.152Z,24.57
2018-03-17T10:45:13.420Z,21.73
2018-03-17T10:47:42.612Z,22.17
2018-03-17T10:50:11.860Z,20.30
2018-03-17T10:52:41.212Z,20.23
2018-03-17T10:55:10.439Z,22.13
2018-03-17T10:57:40.542Z,25.37
2018-03-17T11:00:09.871Z,23.97
2018-03-17T11:02:41.978Z,21.23
2018-03-17T11:05:11.221Z,22.00
2018-03-17T11:07:40.413Z,22.47
2018-03-17T11:10:09.628Z,21.57
2018-03-17T11:12:38.892Z,20.73
2018-03-17T11:15:08.143Z,21.07
2018-03-17T11:17:37.357Z,18.07
2018-03-17T11:20:06.632Z,19.77
2018-03-17T11:22:35.996Z,22.03
2018-03-17T11:25:06.112Z,20.63
2018-03-17T11:27:35.407Z,21.63
2018-03-17T11:30:04.646Z,20.17
2018-03-17T11:32:33.887Z,19.17
2018-03-17T11:35:03.204Z,21.67
2018-03-17T11:37:32.507Z,21.63
2018-03-17T11:40:01.677Z,20.27
2018-03-17T11:42:30.967Z,19.30
2018-03-17T11:45:00.234Z,22.50
2018-03-17T11:47:30.323Z,21.00
2018-03-17T11:49:59.699Z,19.47
2018-03-17T11:52:28.796Z,21.43
2018-03-17T11:54:58.207Z,20.20
2018-03-17T11:57:27.434Z,18.67
2018-03-17T11:59:56.636Z,22.87
2018-03-17T12:02:25.936Z,21.47
2018-03-17T12:04:56.037Z,20.33
2018-03-17T12:07:25.231Z,19.50
2018-03-17T12:09:54.435Z,22.07
2018-03-17T12:12:23.674Z,17.37
2018-03-17T12:14:53.656Z,19.53
2018-03-17T12:17:22.899Z,18.63
2018-03-17T12:19:52.153Z,19.70
2018-03-17T12:22:21.411Z,19.13
2018-03-17T12:24:51.386Z,18.50
2018-03-17T12:27:20.766Z,18.57
2018-03-17T12:29:50.093Z,18.67
2018-03-17T12:32:19.340Z,19.43
2018-03-17T12:34:48.765Z,18.93
2018-03-17T12:37:17.984Z,17.93
2018-03-17T12:39:47.367Z,19.00
2018-03-17T12:42:16.640Z,20.10
2018-03-17T12:44:46.164Z,16.83
2018-03-17T12:47:15.265Z,18.10
2018-03-17T12:49:44.567Z,18.03
2018-03-17T12:52:13.771Z,17.10
2018-03-17T12:54:43.058Z,17.87
2018-03-17T12:57:12.564Z,17.17
2018-03-17T12:59:41.830Z,18.43
2018-03-17T13:02:11.080Z,18.70
2018-03-17T13:04:40.300Z,16.00
2018-03-17T13:07:09.871Z,19.03
2018-03-17T13:09:39.061Z,17.40
2018-03-17T13:12:08.452Z,17.30
2018-03-17T13:14:37.669Z,18.40
2018-03-17T13:17:06.929Z,17.80
2018-03-17T13:19:36.125Z,18.17
2018-03-17T13:22:05.602Z,19.20
2018-03-17T13:24:36.307Z,16.17
2018-03-17T13:27:17.327Z,15.03
2018-03-17T13:29:47.332Z,18.90
2018-03-17T13:32:28.315Z,14.87
2018-03-17T13:34:58.339Z,16.17
2018-03-17T13:37:31.171Z,17.73
2018-03-17T13:40:00.464Z,17.37
2018-03-17T13:42:29.752Z,16.37
2018-03-17T13:44:58.954Z,17.73
2018-03-17T13:47:39.802Z,18.50
2018-03-17T13:50:09.034Z,16.87
2018-03-17T13:52:38.329Z,16.67
2018-03-17T13:55:07.769Z,17.90
2018-03-17T13:57:37.806Z,17.73
2018-03-17T14:00:07.031Z,15.93
2018-03-17T14:02:36.451Z,15.23
2018-03-17T14:05:05.700Z,18.57
2018-03-17T14:07:34.953Z,22.83
2018-03-17T14:10:04.251Z,17.00
2018-03-17T14:12:33.461Z,16.00
2018-03-17T14:15:02.744Z,17.63
2018-03-17T14:17:31.994Z,16.13
2018-03-17T14:20:02.063Z,16.77
2018-03-17T14:22:31.257Z,17.60
2018-03-17T14:25:00.490Z,17.40
2018-03-17T14:27:29.756Z,19.23
2018-03-17T14:29:59.108Z,16.83
2018-03-17T14:32:29.713Z,18.07
2018-03-17T14:34:59.719Z,16.80
2018-03-17T14:37:28.996Z,19.40
2018-03-17T14:39:58.205Z,15.97
2018-03-17T14:42:27.505Z,19.60
2018-03-17T14:44:56.805Z,18.83
2018-03-17T14:47:26.046Z,18.20
2018-03-17T14:49:56.022Z,17.83
2018-03-17T14:52:25.380Z,18.57
2018-03-17T14:54:54.723Z,19.23
2018-03-17T14:57:23.988Z,20.90
2018-03-17T14:59:53.227Z,21.10
2018-03-17T15:02:22.621Z,18.53
2018-03-17T15:04:52.110Z,17.00
2018-03-17T15:07:21.435Z,17.73
2018-03-17T15:09:50.796Z,18.83
2018-03-17T15:12:20.034Z,18.73
2018-03-17T15:14:49.240Z,16.77
2018-03-17T15:17:19.253Z,19.20
2018-03-17T15:19:48.480Z,19.47
2018-03-17T15:22:17.708Z,19.17
2018-03-17T15:24:46.942Z,20.40
2018-03-17T15:27:16.284Z,19.50
2018-03-17T15:29:45.478Z,21.20
2018-03-17T15:32:14.713Z,21.50
2018-03-17T15:34:43.960Z,16.80
2018-03-17T15:37:13.169Z,20.27
2018-03-17T15:39:42.370Z,18.03
2018-03-17T15:42:11.621Z,16.87
2018-03-17T15:44:40.850Z,20.00
2018-03-17T15:47:10.836Z,22.47
2018-03-17T15:49:40.144Z,20.10
2018-03-17T15:52:09.480Z,24.13
2018-03-17T15:54:38.694Z,18.07
2018-03-17T15:57:07.956Z,22.80
2018-03-17T15:59:38.114Z,19.33
2018-03-17T16:02:07.360Z,21.67
2018-03-17T16:04:36.621Z,23.03
2018-03-17T16:07:05.858Z,19.83
2018-03-17T16:09:35.876Z,22.97
2018-03-17T16:12:05.083Z,19.20
2018-03-17T16:14:34.403Z,22.10
2018-03-17T16:17:03.627Z,20.17
2018-03-17T16:19:32.884Z,22.13
2018-03-17T16:22:02.171Z,24.40
2018-03-17T16:24:31.443Z,23.80
2018-03-17T16:27:00.809Z,25.10
2018-03-17T16:29:30.831Z,21.17
2018-03-17T16:32:00.834Z,18.43
2018-03-17T16:34:30.167Z,23.40
2018-03-17T16:36:59.416Z,25.37
2018-03-17T16:39:28.630Z,22.77
2018-03-17T16:41:58.614Z,19.10
2018-03-17T16:44:27.885Z,21.00
2018-03-17T16:46:57.215Z,22.17
2018-03-17T16:49:26.447Z,21.27
2018-03-17T16:51:55.684Z,23.60
2018-03-17T16:54:25.627Z,24.77
2018-03-17T16:56:54.900Z,23.37
2018-03-17T16:59:24.148Z,22.23
2018-03-17T17:01:53.368Z,23.70
2018-03-17T17:04:23.351Z,25.40
2018-03-17T17:06:53.351Z,23.83
2018-03-17T17:09:22.591Z,22.70
2018-03-17T17:11:51.806Z,22.63
2018-03-17T17:14:21.097Z,25.27
2018-03-17T17:16:51.103Z,23.03
2018-03-17T17:19:21.093Z,24.60
2018-03-17T17:21:50.366Z,23.60
2018-03-17T17:24:19.611Z,23.80
2018-03-17T17:26:48.828Z,22.33
2018-03-17T17:29:18.075Z,25.20
2018-03-17T17:31:47.281Z,24.77
2018-03-17T17:34:16.516Z,22.10
2018-03-17T17:36:46.606Z,21.07
2018-03-17T17:39:15.827Z,23.07
2018-03-17T17:41:45.073Z,23.97
2018-03-17T17:44:14.338Z,22.87
2018-03-17T17:46:43.635Z,24.20
2018-03-17T17:49:13.656Z,22.33
2018-03-17T17:51:42.885Z,25.07
2018-03-17T17:54:12.105Z,23.33
2018-03-17T17:56:41.303Z,25.37
2018-03-17T17:59:10.528Z,27.83
2018-03-17T18:01:40.757Z,22.73
2018-03-17T18:04:09.988Z,23.70
2018-03-17T18:06:39.350Z,22.97
2018-03-17T18:09:09.441Z,23.77
2018-03-17T18:11:38.775Z,23.73
2018-03-17T18:14:07.963Z,20.93
2018-03-17T18:16:44.567Z,24.73
2018-03-17T18:19:13.798Z,21.93
2018-03-17T18:21:43.096Z,17.13
2018-03-17T18:24:12.429Z,16.37
2018-03-17T18:26:41.673Z,16.73
2018-03-17T18:29:10.739Z,18.63
2018-03-17T18:31:39.981Z,24.70
2018-03-17T18:34:09.206Z,23.97
2018-03-17T18:36:38.453Z,18.93
2018-03-17T18:39:07.698Z,22.37
2018-03-17T18:41:36.942Z,16.00
2018-03-17T18:44:06.253Z,18.10
2018-03-17T18:46:35.441Z,19.57
2018-03-17T18:49:04.730Z,22.80
2018-03-17T18:51:34.725Z,21.23
2018-03-17T18:54:03.964Z,21.67
2018-03-17T18:56:33.758Z,19.97
2018-03-17T18:59:03.032Z,20.33
2018-03-17T19:01:32.279Z,20.23
2018-03-17T19:04:01.543Z,22.67
2018-03-17T19:06:30.800Z,20.50
2018-03-17T19:09:00.069Z,18.83
2018-03-17T19:11:29.266Z,22.77
2018-03-17T19:13:58.568Z,20.93
2018-03-17T19:16:27.856Z,21.73
2018-03-17T19:18:57.867Z,21.70
2018-03-17T19:21:27.155Z,20.70
2018-03-17T19:23:56.390Z,22.63
2018-03-17T19:26:25.681Z,17.97
2018-03-17T19:28:54.927Z,24.07
2018-03-17T19:31:24.949Z,19.27
2018-03-17T19:33:54.148Z,20.67
2018-03-17T19:36:23.432Z,23.47
2018-03-17T19:38:52.671Z,19.57
2018-03-17T19:41:22.721Z,23.30
2018-03-17T19:43:52.722Z,21.80
2018-03-17T19:46:22.742Z,19.00
2018-03-17T19:48:52.756Z,20.70
2018-03-17T19:51:21.968Z,22.23
2018-03-17T19:53:51.319Z,18.37
2018-03-17T19:56:21.304Z,20.43
2018-03-17T19:58:51.341Z,17.70
2018-03-17T20:01:20.606Z,19.37
2018-03-17T20:03:49.817Z,22.90
2018-03-17T20:06:19.180Z,22.60
2018-03-17T20:08:48.514Z,22.17
2018-03-17T20:11:17.726Z,20.57
2018-03-17T20:13:47.149Z,22.43
2018-03-17T20:16:16.382Z,18.97
2018-03-17T20:18:45.652Z,22.33
2018-03-17T20:21:14.854Z,22.33
2018-03-17T20:23:44.892Z,17.10
2018-03-17T20:26:14.198Z,21.40
2018-03-17T20:28:43.454Z,22.63
2018-03-17T20:31:12.674Z,18.77
2018-03-17T20:33:41.910Z,20.90
2018-03-17T20:36:11.233Z,21.80
2018-03-17T20:38:40.573Z,22.00
2018-03-17T20:41:09.801Z,17.67
2018-03-17T20:43:39.046Z,20.97
2018-03-17T20:46:08.335Z,20.87
2018-03-17T20:48:37.609Z,20.77
2018-03-17T20:51:07.870Z,22.70
2018-03-17T20:53:37.120Z,21.93
2018-03-17T20:56:06.425Z,22.50
2018-03-17T20:58:35.874Z,23.03
2018-03-17T21:01:05.188Z,21.23
2018-03-17T21:03:34.685Z,20.20
2018-03-17T21:06:03.987Z,20.97
2018-03-17T21:08:33.337Z,18.70
2018-03-17T21:11:03.372Z,20.33
2018-03-17T21:13:32.651Z,20.70
2018-03-17T21:16:01.944Z,21.73
2018-03-17T21:18:31.410Z,17.27
2018-03-17T21:21:00.623Z,22.53
2018-03-17T21:23:29.926Z,19.70
2018-03-17T21:25:59.664Z,21.57
2018-03-17T21:28:28.910Z,20.13
2018-03-17T21:30:58.210Z,21.37
2018-03-17T21:33:27.469Z,21.03
2018-03-17T21:35:56.745Z,21.00
2018-03-17T21:38:25.966Z,23.13
2018-03-17T21:40:55.170Z,22.93
2018-03-17T21:43:24.415Z,24.43
2018-03-17T21:45:53.800Z,22.20
2018-03-17T21:48:22.998Z,23.97
2018-03-17T21:50:52.502Z,18.77
2018-03-17T21:53:21.732Z,22.57
2018-03-17T21:55:51.690Z,20.87
2018-03-17T21:58:20.961Z,22.97
2018-03-17T22:00:50.229Z,21.30
2018-03-17T22:03:21.372Z,21.70
2018-03-17T22:05:50.651Z,20.10
2018-03-17T22:08:19.969Z,23.57
2018-03-17T22:10:49.154Z,18.77
2018-03-17T22:13:18.496Z,21.33
2018-03-17T22:15:47.713Z,21.70
2018-03-17T22:18:20.894Z,23.20
2018-03-17T22:20:50.144Z,17.70
2018-03-17T22:23:19.449Z,21.37
2018-03-17T22:25:48.732Z,17.87
2018-03-17T22:28:17.977Z,20.10
2018-03-17T22:30:47.231Z,22.70
2018-03-17T22:33:21.123Z,20.87
2018-03-17T22:35:50.349Z,22.37
2018-03-17T22:38:19.647Z,23.00
2018-03-17T22:40:48.866Z,22.63
2018-03-17T22:43:18.105Z,21.97
2018-03-17T22:45:47.345Z,23.10
2018-03-17T22:48:20.762Z,21.23
2018-03-17T22:50:50.052Z,20.43
2018-03-17T22:53:19.262Z,21.60
2018-03-17T22:55:49.262Z,22.37
2018-03-17T22:58:18.456Z,23.70
2018-03-17T23:00:48.469Z,23.80
2018-03-17T23:03:25.573Z,20.13
2018-03-17T23:05:54.908Z,21.77
2018-03-17T23:08:24.158Z,18.93
2018-03-17T23:10:53.553Z,22.87
2018-03-17T23:13:22.780Z,17.13
2018-03-17T23:15:52.971Z,18.97
2018-03-17T23:18:22.202Z,22.33
2018-03-17T23:20:52.243Z,22.83
2018-03-17T23:23:21.448Z,20.50
2018-03-17T23:25:50.729Z,21.03
2018-03-17T23:28:20.087Z,20.23
2018-03-17T23:30:49.378Z,19.03
2018-03-17T23:33:20.631Z,23.13
2018-03-17T23:35:49.908Z,17.47
2018-03-17T23:38:19.106Z,19.97
2018-03-17T23:40:48.388Z,21.57
2018-03-17T23:43:17.642Z,19.63
2018-03-17T23:45:46.708Z,19.87
2018-03-17T23:48:15.874Z,18.37
2018-03-17T23:50:45.128Z,19.67
2018-03-17T23:53:14.374Z,20.47
2018-03-17T23:55:43.614Z,21.77
2018-03-17T23:58:12.917Z,20.40
